Time;durP1;ratioP1;P1;durP2;ratioP2;P2;SDS_P1;SDS_P2;PMS_P1;PMS_P2;Temp;Humidity;BMP_temperature;BMP_pressure;BME280_temperature;BME280_humidity;BME280_pressure;Samples;Min_cycle;Max_cycle;Signal;HPM_P1;HPM_P2
2021/12/25 00:02:24;;;;;;;36.95;13.40;;;11.10;89.00;;;;;;5017811;28;20105;-88
2021/12/25 00:04:50;;;;;;;28.33;12.63;;;11.10;89.00;;;;;;5015440;28;20116;-87
2021/12/25 00:07:16;;;;;;;24.65;13.77;;;11.00;88.90;;;;;;5019044;28;20068;-89
2021/12/25 00:09:42;;;;;;;24.05;12.23;;;11.00;88.80;;;;;;5023105;28;20038;-88
2021/12/25 00:12:08;;;;;;;26.55;11.68;;;11.00;89.00;;;;;;5018825;28;20047;-88
2021/12/25 00:14:33;;;;;;;26.23;12.05;;;11.00;89.00;;;;;;5017810;28;20030;-89
2021/12/25 00:17:00;;;;;;;31.27;12.23;;;11.10;89.00;;;;;;5014861;28;20092;-87
2021/12/25 00:19:26;;;;;;;30.58;13.30;;;11.10;89.00;;;;;;5001923;28;20081;-88
2021/12/25 00:21:52;;;;;;;30.08;12.48;;;11.10;88.90;;;;;;4996868;28;20074;-87
2021/12/25 00:24:18;;;;;;;27.23;12.95;;;11.10;88.90;;;;;;4999210;28;20034;-89
2021/12/25 00:26:52;;;;;;;28.48;12.13;;;11.20;88.90;;;;;;4997989;28;20068;-88
2021/12/25 00:32:11;;;;;;;26.10;12.60;;;11.20;88.80;;;;;;5012883;28;20061;-87
2021/12/25 00:34:55;;;;;;;29.17;11.95;;;11.20;88.70;;;;;;5015231;28;20120;-87
2021/12/25 00:37:20;;;;;;;20.60;10.75;;;11.10;88.80;;;;;;5017419;28;20120;-89
2021/12/25 00:39:46;;;;;;;22.92;10.82;;;11.10;88.80;;;;;;5014958;28;20115;-88
2021/12/25 00:42:13;;;;;;;33.40;11.15;;;11.10;88.80;;;;;;5016950;28;20049;-88
2021/12/25 00:44:39;;;;;;;23.08;11.60;;;11.10;88.80;;;;;;5015313;28;20507;-88
2021/12/25 00:47:05;;;;;;;28.80;13.38;;;11.10;88.80;;;;;;4999033;28;20030;-88
2021/12/25 00:49:32;;;;;;;27.45;10.60;;;11.10;88.70;;;;;;4995143;28;20019;-88
2021/12/25 00:51:57;;;;;;;28.17;12.55;;;11.10;88.60;;;;;;4998139;28;20081;-88
2021/12/25 00:54:24;;;;;;;30.15;12.40;;;11.00;88.80;;;;;;5007150;28;20030;-88
2021/12/25 00:56:50;;;;;;;20.55;10.52;;;11.10;88.80;;;;;;5014574;28;20058;-88
2021/12/25 00:59:16;;;;;;;17.98;9.75;;;11.00;88.80;;;;;;5018026;28;20022;-89
2021/12/25 01:01:42;;;;;;;18.67;9.77;;;11.00;88.90;;;;;;5014836;28;20049;-86
2021/12/25 01:04:08;;;;;;;21.40;9.85;;;11.00;88.80;;;;;;5017427;28;20032;-88
2021/12/25 01:06:34;;;;;;;21.45;9.18;;;11.00;88.90;;;;;;5014406;28;20037;-89
2021/12/25 01:09:00;;;;;;;15.27;8.45;;;10.90;89.00;;;;;;5035573;28;20021;-88
2021/12/25 01:11:26;;;;;;;21.95;9.07;;;10.90;89.10;;;;;;5037066;28;20048;-87
2021/12/25 01:14:00;;;;;;;17.55;9.30;;;10.90;89.10;;;;;;5019670;28;20029;-88
2021/12/25 01:17:04;;;;;;;25.98;9.65;;;11.00;89.10;;;;;;5019362;28;20113;-88
2021/12/25 01:30:19;;;;;;;15.30;7.78;;;11.00;89.00;;;;;;5015847;28;20412;-88
2021/12/25 01:40:56;;;;;;;23.75;8.77;;;11.00;88.80;;;;;;5005860;28;20117;-89
2021/12/25 01:48:54;;;;;;;17.05;8.02;;;11.00;88.80;;;;;;5016578;28;20052;-88
2021/12/25 01:51:20;;;;;;;15.02;7.55;;;11.00;88.80;;;;;;5031809;28;20029;-89
2021/12/25 01:53:46;;;;;;;17.15;7.75;;;11.00;88.80;;;;;;5015178;28;20030;-88
2021/12/25 01:56:12;;;;;;;19.63;8.98;;;11.00;88.90;;;;;;5017976;28;20036;-88
2021/12/25 01:58:38;;;;;;;16.95;7.85;;;11.00;88.90;;;;;;5015217;28;20026;-88
2021/12/25 02:01:06;;;;;;;18.60;8.80;;;11.00;88.80;;;;;;5033642;28;20463;-87
2021/12/25 02:03:33;;;;;;;21.65;8.73;;;10.90;88.80;;;;;;5014292;28;20071;-89
2021/12/25 02:06:02;;;;;;;21.98;9.30;;;10.90;88.80;;;;;;5017141;28;20022;-88
2021/12/25 02:08:28;;;;;;;20.48;8.45;;;10.90;88.80;;;;;;5018784;28;20037;-89
2021/12/25 02:10:55;;;;;;;15.80;8.23;;;10.80;89.00;;;;;;5032494;28;20456;-88
2021/12/25 02:13:21;;;;;;;15.48;7.82;;;10.80;89.10;;;;;;5017988;28;20033;-89
2021/12/25 02:15:50;;;;;;;15.73;8.50;;;10.70;89.20;;;;;;5014425;28;20036;-88
2021/12/25 02:18:58;;;;;;;20.05;9.07;;;10.70;89.20;;;;;;5018308;28;20096;-89
2021/12/25 02:21:19;;;;;;;19.85;9.57;;;10.70;89.30;;;;;;5017008;28;20045;-88
2021/12/25 02:23:46;;;;;;;23.55;9.32;;;10.70;89.20;;;;;;5022180;28;20064;-88
2021/12/25 02:26:12;;;;;;;16.20;8.25;;;10.70;89.10;;;;;;5025303;28;20072;-88
2021/12/25 02:28:41;;;;;;;17.55;9.73;;;10.70;89.20;;;;;;5019972;28;20018;-88
2021/12/25 02:31:10;;;;;;;22.88;10.50;;;10.70;89.30;;;;;;5019024;28;20403;-88
2021/12/25 02:33:35;;;;;;;27.73;10.50;;;10.60;89.30;;;;;;5017847;28;20028;-88
2021/12/25 02:36:03;;;;;;;22.10;10.32;;;10.60;89.20;;;;;;5021756;28;20109;-88
2021/12/25 02:38:29;;;;;;;26.45;10.43;;;10.60;89.20;;;;;;5018448;28;20026;-89
2021/12/25 02:40:55;;;;;;;18.83;9.52;;;10.70;89.20;;;;;;5020291;28;20475;-88
2021/12/25 02:43:21;;;;;;;24.77;9.23;;;10.60;89.30;;;;;;5031828;28;20112;-88
2021/12/25 02:45:55;;;;;;;20.58;9.65;;;10.60;89.20;;;;;;5034806;28;20030;-88
2021/12/25 02:48:22;;;;;;;15.10;9.15;;;10.60;89.30;;;;;;5034669;28;20048;-88
2021/12/25 02:50:49;;;;;;;25.10;10.43;;;10.60;89.20;;;;;;5018066;28;20034;-88
2021/12/25 02:53:15;;;;;;;29.92;11.50;;;10.60;89.20;;;;;;5021224;28;20109;-87
2021/12/25 02:55:44;;;;;;;25.40;10.70;;;10.60;89.20;;;;;;5018283;28;20037;-88
2021/12/25 02:58:10;;;;;;;26.02;11.05;;;10.60;89.10;;;;;;5021608;28;20034;-87
2021/12/25 03:00:43;;;;;;;24.75;10.50;;;10.50;89.00;;;;;;5017680;28;20030;-88
2021/12/25 03:03:12;;;;;;;27.60;11.68;;;10.60;89.00;;;;;;5020182;28;20491;-87
2021/12/25 03:05:38;;;;;;;24.52;11.30;;;10.60;89.10;;;;;;5017888;28;20036;-88
2021/12/25 03:08:06;;;;;;;25.05;11.25;;;10.60;89.10;;;;;;5017089;28;20029;-88
2021/12/25 03:10:34;;;;;;;27.88;11.65;;;10.50;89.10;;;;;;5040511;28;20450;-88
2021/12/25 03:13:18;;;;;;;22.60;11.35;;;10.50;89.10;;;;;;5037622;28;20017;-89
2021/12/25 03:15:47;;;;;;;24.20;11.27;;;10.50;89.00;;;;;;5000140;28;20117;-88
2021/12/25 03:18:20;;;;;;;27.27;11.20;;;10.50;88.90;;;;;;5003990;28;20022;-88
2021/12/25 03:20:50;;;;;;;23.92;12.27;;;10.50;88.90;;;;;;5020504;28;20081;-88
2021/12/25 03:23:27;;;;;;;20.02;11.15;;;10.50;88.80;;;;;;5017766;28;20026;-89
2021/12/25 03:25:55;;;;;;;23.83;10.88;;;10.50;88.70;;;;;;5019572;28;20041;-88
2021/12/25 03:28:31;;;;;;;28.40;10.88;;;10.60;88.80;;;;;;5017858;28;20029;-88
2021/12/25 03:31:00;;;;;;;23.02;11.80;;;10.50;88.70;;;;;;5016785;28;20522;-87
2021/12/25 03:33:27;;;;;;;24.98;11.65;;;10.50;88.90;;;;;;5019520;28;20117;-87
2021/12/25 03:35:53;;;;;;;23.17;9.82;;;10.50;88.90;;;;;;5015829;28;20155;-89
2021/12/25 03:38:19;;;;;;;26.75;13.30;;;10.40;88.70;;;;;;5019004;28;20404;-87
2021/12/25 03:40:47;;;;;;;24.63;10.35;;;10.40;88.90;;;;;;5017380;28;20030;-88
2021/12/25 03:43:12;;;;;;;24.80;10.23;;;10.50;88.90;;;;;;5020376;28;20109;-89
2021/12/25 03:45:39;;;;;;;17.73;9.75;;;10.50;89.00;;;;;;5016566;28;20076;-87
2021/12/25 03:53:38;;;;;;;21.27;10.30;;;10.50;88.90;;;;;;5016666;28;20037;-87
2021/12/25 03:58:50;;;;;;;21.80;9.93;;;10.50;88.90;;;;;;5017153;28;20076;-88
2021/12/25 04:01:31;;;;;;;24.92;10.50;;;10.50;88.90;;;;;;5018992;28;20144;-88
2021/12/25 04:06:30;;;;;;;20.42;10.73;;;10.50;88.70;;;;;;5020268;28;20121;-88
2021/12/25 04:08:57;;;;;;;25.05;10.63;;;10.50;88.50;;;;;;5019268;28;20021;-87
2021/12/25 04:11:32;;;;;;;26.88;9.90;;;10.40;88.70;;;;;;5017539;28;20073;-88
2021/12/25 04:13:58;;;;;;;17.67;8.82;;;10.40;88.70;;;;;;5016098;28;20025;-88
2021/12/25 04:16:28;;;;;;;23.35;10.35;;;10.50;88.90;;;;;;5016017;28;20474;-87
2021/12/25 04:18:55;;;;;;;29.13;9.82;;;10.40;88.60;;;;;;5020336;28;20029;-87
2021/12/25 04:21:23;;;;;;;20.40;10.55;;;10.50;88.70;;;;;;5014689;28;20042;-88
2021/12/25 04:23:49;;;;;;;19.48;8.90;;;10.50;88.70;;;;;;5019844;28;20464;-87
2021/12/25 04:26:15;;;;;;;24.45;11.13;;;10.50;88.70;;;;;;5015561;28;20105;-87
2021/12/25 04:29:16;;;;;;;15.20;7.80;;;10.40;88.80;;;;;;5018197;28;20507;-87
2021/12/25 04:31:47;;;;;;;18.33;9.23;;;10.40;88.60;;;;;;5015152;28;20084;-87
2021/12/25 04:47:54;;;;;;;24.38;10.27;;;10.50;88.70;;;;;;4996618;28;20041;-87
2021/12/25 05:02:45;;;;;;;22.70;8.80;;;10.70;88.60;;;;;;4999010;28;20092;-88
2021/12/25 05:05:10;;;;;;;18.42;8.27;;;10.70;88.70;;;;;;5016138;28;20025;-87
2021/12/25 05:07:36;;;;;;;25.77;8.10;;;10.70;88.50;;;;;;5015347;28;20030;-87
2021/12/25 05:10:02;;;;;;;21.30;9.07;;;10.60;88.80;;;;;;5019305;28;20049;-88
2021/12/25 05:12:28;;;;;;;20.08;9.02;;;10.60;88.70;;;;;;5012854;28;20049;-87
2021/12/25 05:14:54;;;;;;;19.33;9.40;;;10.60;88.80;;;;;;5018658;28;20030;-88
2021/12/25 05:17:19;;;;;;;29.77;9.65;;;10.60;88.70;;;;;;5014145;28;20057;-87
2021/12/25 05:19:48;;;;;;;22.67;9.95;;;10.60;88.70;;;;;;5017523;28;20511;-86
2021/12/25 05:22:15;;;;;;;20.73;8.75;;;10.60;89.00;;;;;;5013780;28;20492;-88
2021/12/25 05:24:41;;;;;;;27.40;8.93;;;10.70;88.70;;;;;;4995795;28;20504;-88
2021/12/25 05:27:07;;;;;;;10.40;6.25;;;10.70;88.70;;;;;;4997752;28;20030;-87
2021/12/25 05:29:34;;;;;;;19.58;8.32;;;10.70;88.70;;;;;;5008044;28;20583;-88
2021/12/25 05:32:00;;;;;;;18.45;8.43;;;10.70;88.90;;;;;;5017231;28;20034;-87
2021/12/25 05:34:26;;;;;;;22.60;8.60;;;10.70;88.90;;;;;;5013994;28;20022;-88
2021/12/25 05:36:52;;;;;;;17.13;8.05;;;10.70;89.00;;;;;;5017663;28;20054;-88
2021/12/25 05:39:18;;;;;;;21.13;7.47;;;10.70;89.10;;;;;;5015974;28;20025;-87
2021/12/25 05:41:44;;;;;;;17.67;7.45;;;10.70;88.90;;;;;;5014499;28;20551;-87
2021/12/25 05:44:09;;;;;;;22.55;7.57;;;10.70;89.00;;;;;;5018059;28;20476;-88
2021/12/25 05:46:35;;;;;;;14.73;7.53;;;10.70;89.20;;;;;;4995106;28;20089;-89
2021/12/25 05:49:01;;;;;;;17.98;7.50;;;10.70;89.20;;;;;;4997496;28;20018;-89
2021/12/25 05:51:26;;;;;;;18.92;7.63;;;10.70;89.30;;;;;;4995468;28;20042;-88
2021/12/25 05:53:52;;;;;;;18.35;7.63;;;10.60;89.60;;;;;;5016768;28;20041;-88
2021/12/25 05:56:18;;;;;;;21.95;8.02;;;10.60;89.40;;;;;;5020165;28;20061;-88
2021/12/25 05:58:44;;;;;;;21.33;6.85;;;10.60;89.80;;;;;;5017741;28;20030;-87
2021/12/25 06:01:11;;;;;;;12.63;5.25;;;10.60;89.90;;;;;;5006201;28;20093;-88
2021/12/25 06:03:37;;;;;;;16.63;5.55;;;10.70;89.80;;;;;;4999030;28;20101;-88
2021/12/25 06:06:03;;;;;;;10.73;6.13;;;10.70;89.80;;;;;;5004207;28;20034;-88
2021/12/25 06:08:29;;;;;;;9.48;4.53;;;10.70;89.80;;;;;;5021353;28;20022;-88
2021/12/25 06:10:57;;;;;;;9.68;5.55;;;10.70;89.80;;;;;;5041118;28;20026;-88
2021/12/25 06:13:23;;;;;;;15.00;5.07;;;10.70;90.10;;;;;;5037401;28;20029;-87
2021/12/25 06:15:52;;;;;;;10.50;5.03;;;10.80;90.10;;;;;;5019428;28;20030;-87
2021/12/25 06:18:17;;;;;;;11.73;4.05;;;10.70;90.00;;;;;;5022503;28;20048;-87
2021/12/25 06:20:43;;;;;;;7.43;3.45;;;10.80;90.00;;;;;;5018103;28;20500;-87
2021/12/25 06:23:09;;;;;;;12.75;3.97;;;10.70;90.00;;;;;;5021960;28;20053;-88
2021/12/25 06:25:35;;;;;;;8.45;3.53;;;10.80;89.90;;;;;;5018471;28;20037;-88
2021/12/25 06:28:01;;;;;;;7.00;3.85;;;10.70;89.90;;;;;;5020976;28;20056;-89
2021/12/25 06:30:26;;;;;;;7.88;3.60;;;10.70;90.00;;;;;;5019369;28;20085;-88
2021/12/25 06:32:52;;;;;;;9.05;3.97;;;10.70;89.90;;;;;;5018593;28;20030;-88
2021/12/25 06:35:18;;;;;;;7.18;3.55;;;10.60;90.00;;;;;;5021914;28;20504;-89
2021/12/25 06:37:46;;;;;;;6.63;3.35;;;10.60;90.10;;;;;;5018577;28;20026;-88
2021/12/25 06:40:17;;;;;;;8.63;3.63;;;10.60;90.10;;;;;;5018839;28;20499;-88
2021/12/25 06:42:43;;;;;;;8.85;4.10;;;10.50;90.30;;;;;;5017324;28;20111;-89
2021/12/25 06:45:12;;;;;;;10.43;4.53;;;10.60;90.50;;;;;;5029077;28;20061;-88
2021/12/25 06:47:38;;;;;;;9.60;4.05;;;10.50;90.50;;;;;;5018039;28;20018;-88
2021/12/25 06:50:07;;;;;;;7.25;3.60;;;10.60;90.60;;;;;;5016975;28;20668;-89
2021/12/25 06:52:34;;;;;;;7.97;3.28;;;10.60;90.40;;;;;;5021997;28;20028;-89
2021/12/25 06:55:00;;;;;;;6.35;3.47;;;10.60;90.30;;;;;;5017000;28;20034;-88
2021/12/25 06:57:28;;;;;;;5.55;2.33;;;10.60;90.40;;;;;;5020494;28;20022;-88
2021/12/25 06:59:54;;;;;;;5.18;3.03;;;10.60;90.40;;;;;;5016237;28;20041;-89
2021/12/25 07:02:20;;;;;;;7.93;3.20;;;10.70;90.50;;;;;;5018373;28;20030;-87
2021/12/25 07:04:45;;;;;;;13.00;3.53;;;10.70;90.50;;;;;;4998547;28;20034;-86
2021/12/25 07:07:11;;;;;;;7.10;3.55;;;10.70;90.40;;;;;;5016223;28;20117;-88
2021/12/25 07:09:37;;;;;;;8.85;3.08;;;10.70;90.30;;;;;;5020994;28;20018;-84
2021/12/25 07:12:03;;;;;;;10.85;3.80;;;10.70;90.30;;;;;;5015433;28;20026;-87
2021/12/25 07:14:29;;;;;;;7.60;3.35;;;10.80;90.20;;;;;;5013888;28;20026;-87
2021/12/25 07:16:55;;;;;;;7.28;3.92;;;10.70;90.20;;;;;;5015874;28;20026;-87
2021/12/25 07:19:21;;;;;;;14.57;4.93;;;10.80;90.30;;;;;;5019753;28;20034;-87
2021/12/25 07:21:46;;;;;;;7.40;3.67;;;10.80;89.90;;;;;;5018125;28;20018;-87
2021/12/25 07:24:14;;;;;;;8.82;2.97;;;10.80;89.90;;;;;;5016831;28;20041;-87
2021/12/25 07:26:40;;;;;;;5.70;3.83;;;10.70;90.00;;;;;;5020741;28;20030;-87
2021/12/25 07:29:07;;;;;;;6.18;3.22;;;10.70;90.00;;;;;;5016953;28;20084;-86
2021/12/25 07:31:33;;;;;;;7.88;4.18;;;10.70;90.00;;;;;;5034943;28;20022;-83
2021/12/25 07:33:59;;;;;;;7.00;3.42;;;10.70;90.10;;;;;;5016918;28;20582;-85
2021/12/25 07:36:24;;;;;;;8.80;2.97;;;10.70;90.00;;;;;;5018446;28;20100;-82
2021/12/25 07:38:52;;;;;;;6.03;3.15;;;10.70;89.90;;;;;;5019796;23;20057;-79
2021/12/25 07:41:18;;;;;;;4.70;2.92;;;10.70;90.00;;;;;;4996373;28;20041;-78
